createdAt,value
2023-03-22T00:27:03.252Z,70
2023-03-22T00:56:26.405Z,71
2023-03-22T01:25:47.107Z,73
2023-03-22T01:55:07.467Z,74
2023-03-22T02:24:27.206Z,76
2023-03-22T02:53:51.402Z,74
2023-03-22T03:23:15.479Z,76
2023-03-22T03:52:36.681Z,74
2023-03-22T04:22:01.199Z,74
2023-03-22T04:51:19.881Z,76
2023-03-22T05:20:40.752Z,79
2023-03-22T05:49:40.251Z,79
2023-03-22T06:19:03.454Z,80
2023-03-22T06:48:28.124Z,81
2023-03-22T07:17:42.354Z,79
2023-03-22T07:47:04.517Z,74
2023-03-22T08:16:23.673Z,69
2023-03-22T08:45:44.772Z,67
2023-03-22T09:15:11.466Z,61
2023-03-22T09:44:32.152Z,59
2023-03-22T10:13:58.471Z,56
2023-03-22T10:43:28.194Z,55
2023-03-22T11:12:47.675Z,51
2023-03-22T11:42:16.620Z,43
2023-03-22T12:11:49.616Z,42
2023-03-22T12:41:07.629Z,46
2023-03-22T13:10:29.876Z,46
2023-03-22T13:39:48.394Z,47
2023-03-22T14:09:08.628Z,47
2023-03-22T15:07:59.058Z,45
2023-03-22T15:37:21.304Z,42
2023-03-22T16:06:43.482Z,36
2023-03-22T16:35:53.203Z,39
2023-03-22T17:04:59.312Z,41
2023-03-22T17:33:59.109Z,43
2023-03-22T18:03:12.953Z,45
2023-03-22T18:32:38.281Z,47
2023-03-22T19:01:07.321Z,48
2023-03-22T19:30:21.075Z,49
2023-03-22T19:59:32.094Z,52
2023-03-22T20:28:16.217Z,52
2023-03-22T20:57:19.973Z,52
2023-03-22T21:26:37.140Z,54
2023-03-22T21:55:49.484Z,54
2023-03-22T22:24:59.559Z,60
2023-03-22T22:54:23.630Z,61
2023-03-22T23:23:26.575Z,66
2023-03-22T23:52:44.032Z,67
